createdAt,value
2019-02-19T00:01:46.904Z,46.60
2019-02-19T00:04:15.521Z,45.23
2019-02-19T00:06:44.121Z,45.75
2019-02-19T00:09:12.772Z,46.97
2019-02-19T00:11:41.674Z,48.42
2019-02-19T00:14:10.285Z,47.70
2019-02-19T00:16:38.856Z,47.52
2019-02-19T00:19:07.460Z,46.71
2019-02-19T00:21:36.029Z,48.65
2019-02-19T00:24:04.701Z,47.85
2019-02-19T00:26:33.313Z,47.65
2019-02-19T00:29:01.923Z,47.64
2019-02-19T00:31:30.806Z,46.79
2019-02-19T00:33:59.678Z,47.89
2019-02-19T00:36:28.259Z,47.07
2019-02-19T00:38:56.845Z,47.49
2019-02-19T00:41:25.438Z,48.21
2019-02-19T00:43:54.030Z,48.28
2019-02-19T00:46:22.622Z,49.26
2019-02-19T00:48:52.273Z,49.48
2019-02-19T00:51:20.878Z,49.50
2019-02-19T00:53:49.467Z,48.19
2019-02-19T00:56:18.071Z,48.17
2019-02-19T00:58:46.685Z,47.75
2019-02-19T01:01:15.297Z,49.48
2019-02-19T01:03:44.010Z,47.77
2019-02-19T01:06:12.922Z,48.57
2019-02-19T01:08:41.861Z,48.50
2019-02-19T01:11:10.480Z,48.45
2019-02-19T01:13:39.303Z,48.36
2019-02-19T01:16:08.078Z,48.62
2019-02-19T01:18:36.744Z,48.57
2019-02-19T01:21:05.657Z,48.41
2019-02-19T01:23:34.240Z,50.45
2019-02-19T01:26:02.917Z,48.73
2019-02-19T01:28:31.506Z,48.93
2019-02-19T01:31:00.077Z,47.63
2019-02-19T01:33:28.672Z,48.14
2019-02-19T01:35:57.528Z,47.94
2019-02-19T01:38:26.354Z,48.71
2019-02-19T01:40:54.939Z,46.84
2019-02-19T01:43:23.827Z,46.87
2019-02-19T01:45:52.400Z,47.43
2019-02-19T01:48:21.075Z,46.60
2019-02-19T01:50:49.691Z,46.99
2019-02-19T01:53:18.271Z,46.82
2019-02-19T01:55:46.973Z,47.52
2019-02-19T01:58:15.556Z,46.84
2019-02-19T02:00:44.407Z,46.84
2019-02-19T02:03:12.995Z,46.60
2019-02-19T02:05:41.589Z,47.25
2019-02-19T02:08:10.284Z,47.81
2019-02-19T02:10:38.878Z,48.80
2019-02-19T02:13:07.689Z,46.93
2019-02-19T02:15:42.493Z,48.07
2019-02-19T02:18:06.678Z,48.28
2019-02-19T02:20:35.561Z,47.80
2019-02-19T02:23:04.296Z,49.07
2019-02-19T02:25:32.934Z,46.11
2019-02-19T02:28:01.525Z,46.03
2019-02-19T02:30:30.127Z,46.82
2019-02-19T02:32:58.713Z,47.56
2019-02-19T02:35:27.386Z,47.91
2019-02-19T02:37:55.998Z,47.82
2019-02-19T02:40:24.628Z,48.19
2019-02-19T02:42:53.226Z,47.52
2019-02-19T02:45:22.078Z,47.70
2019-02-19T02:47:50.641Z,48.78
2019-02-19T02:50:19.523Z,49.09
2019-02-19T02:52:48.383Z,47.74
2019-02-19T02:55:17.218Z,46.44
2019-02-19T02:57:45.827Z,46.75
2019-02-19T03:00:14.459Z,46.59
2019-02-19T03:02:43.219Z,46.03
2019-02-19T03:05:11.817Z,47.38
2019-02-19T03:07:43.432Z,46.66
2019-02-19T03:10:12.358Z,48.43
2019-02-19T03:12:40.972Z,49.39
2019-02-19T03:15:10.085Z,48.57
2019-02-19T03:17:38.737Z,47.64
2019-02-19T03:20:07.478Z,47.39
2019-02-19T03:22:36.421Z,47.83
2019-02-19T03:25:05.136Z,49.03
2019-02-19T03:27:34.775Z,50.00
2019-02-19T03:30:03.474Z,49.21
2019-02-19T03:32:32.293Z,50.84
2019-02-19T03:35:00.878Z,50.59
2019-02-19T03:37:29.496Z,51.61
2019-02-19T03:39:58.121Z,51.39
2019-02-19T03:42:26.650Z,49.76
2019-02-19T03:44:55.226Z,50.34
2019-02-19T03:47:23.881Z,49.00
2019-02-19T03:49:52.483Z,48.08
2019-02-19T03:52:21.333Z,49.33
2019-02-19T03:54:49.960Z,49.66
2019-02-19T03:57:18.531Z,49.23
2019-02-19T03:59:47.338Z,49.38
2019-02-19T04:02:16.020Z,50.75
2019-02-19T04:04:44.694Z,51.25
2019-02-19T04:07:13.515Z,48.87
2019-02-19T04:09:42.141Z,49.79
2019-02-19T04:12:10.724Z,52.13
2019-02-19T04:14:39.355Z,50.80
2019-02-19T04:17:08.171Z,53.07
2019-02-19T04:19:36.772Z,51.82
2019-02-19T04:22:05.419Z,52.34
2019-02-19T04:24:34.000Z,53.43
2019-02-19T04:27:02.623Z,54.11
2019-02-19T04:29:31.200Z,52.63
2019-02-19T04:31:59.812Z,53.57
2019-02-19T04:34:28.435Z,53.18
2019-02-19T04:36:57.074Z,55.70
2019-02-19T04:39:25.662Z,54.48
2019-02-19T04:41:55.232Z,51.84
2019-02-19T04:44:24.143Z,52.01
2019-02-19T04:46:52.731Z,52.92
2019-02-19T04:49:21.359Z,53.40
2019-02-19T04:51:49.971Z,52.18
2019-02-19T04:54:18.808Z,54.43
2019-02-19T04:56:47.409Z,54.49
2019-02-19T04:59:16.026Z,53.51
2019-02-19T05:01:44.621Z,54.08
2019-02-19T05:04:13.215Z,56.09
2019-02-19T05:06:41.884Z,56.50
2019-02-19T05:09:10.484Z,55.83
2019-02-19T05:11:39.066Z,57.15
2019-02-19T05:14:07.673Z,54.47
2019-02-19T05:16:40.792Z,54.88
2019-02-19T05:19:06.904Z,55.66
2019-02-19T05:21:35.754Z,54.97
2019-02-19T05:24:04.666Z,55.43
2019-02-19T05:26:33.238Z,54.51
2019-02-19T05:29:02.112Z,57.24
2019-02-19T05:31:30.683Z,58.67
2019-02-19T05:33:59.251Z,56.62
2019-02-19T05:36:27.853Z,57.29
2019-02-19T05:38:56.436Z,58.03
2019-02-19T05:41:25.031Z,57.05
2019-02-19T05:43:53.607Z,58.38
2019-02-19T05:46:22.204Z,58.38
2019-02-19T05:48:50.790Z,60.59
2019-02-19T05:51:19.487Z,62.52
2019-02-19T05:53:48.058Z,62.28
2019-02-19T05:56:16.770Z,61.11
2019-02-19T05:58:45.364Z,64.83
2019-02-19T06:01:14.070Z,62.15
2019-02-19T06:03:42.700Z,60.46
2019-02-19T06:06:11.409Z,60.03
2019-02-19T06:08:40.355Z,61.37
2019-02-19T06:11:09.276Z,61.02
2019-02-19T06:13:38.047Z,59.88
2019-02-19T06:16:06.678Z,58.88
2019-02-19T06:18:35.294Z,59.28
2019-02-19T06:21:03.876Z,61.28
2019-02-19T06:23:32.490Z,62.39
2019-02-19T06:26:01.116Z,62.42
2019-02-19T06:28:30.019Z,62.43
2019-02-19T06:30:58.624Z,62.87
2019-02-19T06:33:27.242Z,63.17
2019-02-19T06:35:55.982Z,62.82
2019-02-19T06:38:24.941Z,61.59
2019-02-19T06:40:54.161Z,62.96
2019-02-19T06:43:22.807Z,61.01
2019-02-19T06:45:51.744Z,61.21
2019-02-19T06:48:20.450Z,62.34
2019-02-19T06:50:49.072Z,60.99
2019-02-19T06:53:17.818Z,60.87
2019-02-19T06:55:46.665Z,60.40
2019-02-19T06:58:16.317Z,60.93
2019-02-19T07:00:45.202Z,62.70
2019-02-19T07:03:19.003Z,62.27
2019-02-19T07:05:47.611Z,61.34
2019-02-19T07:08:16.574Z,61.16
2019-02-19T07:10:45.295Z,62.98
2019-02-19T07:13:14.148Z,63.03
2019-02-19T07:15:43.231Z,63.92
2019-02-19T07:18:11.863Z,64.23
2019-02-19T07:20:40.480Z,65.05
2019-02-19T07:23:09.095Z,64.36
2019-02-19T07:25:37.916Z,65.55
2019-02-19T07:28:06.601Z,66.18
2019-02-19T07:30:35.269Z,65.35
2019-02-19T07:33:03.857Z,64.94
2019-02-19T07:35:32.471Z,66.71
2019-02-19T07:38:01.064Z,65.53
2019-02-19T07:40:29.795Z,64.84
2019-02-19T07:42:58.423Z,66.08
2019-02-19T07:45:27.047Z,65.59
2019-02-19T07:47:55.669Z,67.48
2019-02-19T07:50:24.264Z,64.87
2019-02-19T07:52:52.872Z,65.82
2019-02-19T07:55:21.559Z,65.58
2019-02-19T07:57:50.414Z,66.68
2019-02-19T08:00:19.388Z,64.87
2019-02-19T08:02:48.027Z,65.51
2019-02-19T08:05:16.652Z,66.40
2019-02-19T08:07:45.306Z,65.48
2019-02-19T08:10:14.037Z,65.12
2019-02-19T08:12:42.736Z,63.11
2019-02-19T08:15:11.455Z,62.30
2019-02-19T08:17:40.047Z,64.96
2019-02-19T08:20:15.315Z,64.68
2019-02-19T08:22:39.219Z,65.05
2019-02-19T08:25:08.020Z,68.96
2019-02-19T08:27:36.634Z,66.69
2019-02-19T08:30:05.740Z,66.58
2019-02-19T08:32:34.374Z,68.59
2019-02-19T08:35:03.145Z,67.94
2019-02-19T08:37:31.801Z,69.11
2019-02-19T08:40:00.360Z,68.05
2019-02-19T08:42:28.951Z,68.37
2019-02-19T08:44:57.836Z,67.87
2019-02-19T08:47:26.969Z,68.61
2019-02-19T08:49:55.614Z,68.30
2019-02-19T08:52:24.631Z,65.35
2019-02-19T08:54:53.284Z,68.82
2019-02-19T08:57:21.875Z,69.69
2019-02-19T08:59:50.769Z,67.89
2019-02-19T09:02:19.442Z,67.01
2019-02-19T09:04:48.260Z,64.11
2019-02-19T09:07:16.862Z,63.94
2019-02-19T09:09:45.431Z,61.27
2019-02-19T09:12:14.044Z,61.30
2019-02-19T09:14:42.630Z,59.92
2019-02-19T09:17:11.223Z,60.24
2019-02-19T09:19:39.868Z,58.60
2019-02-19T09:22:08.484Z,60.11
2019-02-19T09:24:37.113Z,57.66
2019-02-19T09:27:05.695Z,58.40
2019-02-19T09:29:34.559Z,58.25
2019-02-19T09:32:03.146Z,57.02
2019-02-19T09:34:31.730Z,56.44
2019-02-19T09:37:00.301Z,58.44
2019-02-19T09:39:28.923Z,57.78
2019-02-19T09:41:57.506Z,56.43
2019-02-19T09:44:26.129Z,55.14
2019-02-19T09:46:54.734Z,54.68
2019-02-19T09:49:23.596Z,57.01
2019-02-19T09:51:52.197Z,56.16
2019-02-19T09:54:20.854Z,57.00
2019-02-19T09:56:49.437Z,56.77
2019-02-19T09:59:19.026Z,58.12
2019-02-19T10:01:47.854Z,58.40
2019-02-19T10:04:16.456Z,58.05
2019-02-19T10:06:45.539Z,57.29
2019-02-19T10:09:14.384Z,56.78
2019-02-19T10:11:42.962Z,56.07
2019-02-19T10:14:11.563Z,56.44
2019-02-19T10:16:41.922Z,53.95
2019-02-19T10:19:10.569Z,52.60
2019-02-19T10:21:39.403Z,50.93
2019-02-19T10:24:08.067Z,49.47
2019-02-19T10:26:36.657Z,44.59
2019-02-19T10:29:05.910Z,44.14
2019-02-19T10:31:34.508Z,43.99
2019-02-19T10:34:03.096Z,46.98
2019-02-19T10:36:31.707Z,48.50
2019-02-19T10:39:00.334Z,48.04
2019-02-19T10:41:29.196Z,48.26
2019-02-19T10:43:57.775Z,47.17
2019-02-19T10:46:26.356Z,47.72
2019-02-19T10:48:54.935Z,46.15
2019-02-19T10:51:23.521Z,42.95
2019-02-19T10:53:52.108Z,42.09
2019-02-19T10:56:20.708Z,44.94
2019-02-19T10:58:49.272Z,46.69
2019-02-19T11:01:17.878Z,48.27
2019-02-19T11:03:46.465Z,48.99
2019-02-19T11:06:15.150Z,47.74
2019-02-19T11:08:43.760Z,48.40
2019-02-19T11:11:12.362Z,48.82
2019-02-19T11:13:41.379Z,49.22
2019-02-19T11:16:09.992Z,49.85
2019-02-19T11:18:39.068Z,48.72
2019-02-19T11:21:07.700Z,48.72
2019-02-19T11:23:36.306Z,48.71
2019-02-19T11:26:04.893Z,48.71
2019-02-19T11:28:33.697Z,48.20
2019-02-19T11:31:02.323Z,47.10
2019-02-19T11:33:31.435Z,47.77
2019-02-19T11:36:00.071Z,46.86
2019-02-19T11:38:28.666Z,47.24
2019-02-19T11:40:57.345Z,46.23
2019-02-19T11:43:26.296Z,49.02
2019-02-19T11:45:55.321Z,48.90
2019-02-19T11:48:23.926Z,48.69
2019-02-19T11:50:52.523Z,47.93
2019-02-19T11:53:22.308Z,47.01
2019-02-19T11:55:50.992Z,47.01
2019-02-19T11:58:20.283Z,47.79
2019-02-19T12:00:48.945Z,46.23
2019-02-19T12:03:17.609Z,46.23
2019-02-19T12:05:46.310Z,44.32
2019-02-19T12:08:15.086Z,41.93
2019-02-19T12:10:43.680Z,41.11
2019-02-19T12:13:12.277Z,40.91
2019-02-19T12:15:41.113Z,40.45
2019-02-19T12:18:09.698Z,40.21
2019-02-19T12:20:38.311Z,37.86
2019-02-19T12:23:07.083Z,39.50
2019-02-19T12:25:35.685Z,38.31
2019-02-19T12:28:04.530Z,34.90
2019-02-19T12:30:33.213Z,36.89
2019-02-19T12:33:01.972Z,35.99
2019-02-19T12:35:30.606Z,36.84
2019-02-19T12:37:59.302Z,35.32
2019-02-19T12:40:27.947Z,34.56
2019-02-19T12:42:56.463Z,33.88
2019-02-19T12:45:25.052Z,35.18
2019-02-19T12:47:53.678Z,36.68
2019-02-19T12:50:22.327Z,35.31
2019-02-19T12:52:51.157Z,34.73
2019-02-19T12:55:19.771Z,33.42
2019-02-19T12:57:48.381Z,32.80
2019-02-19T13:00:17.094Z,33.32
2019-02-19T13:02:45.891Z,34.53
2019-02-19T13:05:14.624Z,33.80
2019-02-19T13:07:43.277Z,33.43
2019-02-19T13:10:12.220Z,33.96
2019-02-19T13:12:41.050Z,32.95
2019-02-19T13:15:11.477Z,33.69
2019-02-19T13:17:40.312Z,35.04
2019-02-19T13:20:10.683Z,34.96
2019-02-19T13:22:39.255Z,34.86
2019-02-19T13:25:08.555Z,35.24
2019-02-19T13:27:37.126Z,35.34
2019-02-19T13:30:07.266Z,36.99
2019-02-19T13:32:36.194Z,37.10
2019-02-19T13:35:05.119Z,39.79
2019-02-19T13:37:33.709Z,38.31
2019-02-19T13:40:02.321Z,38.96
2019-02-19T13:42:30.905Z,38.29
2019-02-19T13:44:59.506Z,38.00
2019-02-19T13:47:28.159Z,39.72
2019-02-19T13:49:56.978Z,40.34
2019-02-19T13:52:39.644Z,40.53
2019-02-19T13:55:15.369Z,39.34
2019-02-19T13:57:44.002Z,40.33
2019-02-19T14:00:18.380Z,40.25
2019-02-19T14:02:46.974Z,39.21
2019-02-19T14:05:15.559Z,40.79
2019-02-19T14:07:44.146Z,41.35
2019-02-19T14:10:12.926Z,40.81
2019-02-19T14:12:41.532Z,40.83
2019-02-19T14:15:29.373Z,41.83
2019-02-19T14:17:58.691Z,41.47
2019-02-19T14:20:34.250Z,41.02
2019-02-19T14:23:15.428Z,40.87
2019-02-19T14:26:09.473Z,42.86
2019-02-19T14:28:57.061Z,42.52
2019-02-19T14:31:43.174Z,42.50
2019-02-19T14:34:23.154Z,43.04
2019-02-19T14:37:09.326Z,43.60
2019-02-19T14:39:57.770Z,43.94
2019-02-19T14:42:38.355Z,43.95
2019-02-19T14:45:14.481Z,44.97
2019-02-19T14:48:14.088Z,44.14
2019-02-19T14:50:53.445Z,43.21
2019-02-19T14:53:59.122Z,42.93
2019-02-19T14:56:35.116Z,43.88
2019-02-19T14:59:21.090Z,44.25
2019-02-19T15:02:08.103Z,46.20
2019-02-19T15:04:56.814Z,44.83
2019-02-19T15:07:32.310Z,44.55
2019-02-19T15:10:32.354Z,44.55
2019-02-19T15:13:11.090Z,43.87
2019-02-19T15:15:57.499Z,43.65
2019-02-19T15:18:43.788Z,43.65
2019-02-19T15:21:26.803Z,44.52
2019-02-19T15:24:26.435Z,45.20
2019-02-19T15:27:12.929Z,45.20
2019-02-19T15:29:59.517Z,43.39
2019-02-19T15:32:41.395Z,44.33
2019-02-19T15:35:27.812Z,46.76
2019-02-19T15:38:16.330Z,46.76
2019-02-19T15:41:07.051Z,44.50
2019-02-19T15:43:51.248Z,45.19
2019-02-19T15:46:45.272Z,45.19
2019-02-19T15:49:31.867Z,44.96
2019-02-19T15:52:23.568Z,45.32
2019-02-19T15:55:11.335Z,43.99
2019-02-19T15:57:53.560Z,44.86
2019-02-19T16:00:47.332Z,45.29
2019-02-19T16:03:23.082Z,46.14
2019-02-19T16:05:56.721Z,46.37
2019-02-19T16:08:33.693Z,46.37
2019-02-19T16:11:10.369Z,46.87
2019-02-19T16:13:51.589Z,46.87
2019-02-19T16:16:48.697Z,46.00
2019-02-19T16:19:25.402Z,44.63
2019-02-19T16:22:16.262Z,45.83
2019-02-19T16:25:16.422Z,45.85
2019-02-19T16:27:58.363Z,45.74
2019-02-19T16:30:46.098Z,47.19
2019-02-19T16:33:33.183Z,47.19
2019-02-19T16:36:30.404Z,47.01
2019-02-19T16:39:13.506Z,46.02
2019-02-19T16:41:51.480Z,46.02
2019-02-19T16:44:48.256Z,46.55
2019-02-19T16:47:42.730Z,46.56
2019-02-19T16:50:30.105Z,47.61
2019-02-19T16:53:03.461Z,47.61
2019-02-19T16:55:38.764Z,46.98
2019-02-19T16:58:16.785Z,47.18
2019-02-19T17:00:55.096Z,47.03
2019-02-19T17:03:38.184Z,47.83
2019-02-19T17:06:22.396Z,47.96
2019-02-19T17:09:02.376Z,49.01
2019-02-19T17:11:44.918Z,50.18
2019-02-19T17:14:33.554Z,50.18
2019-02-19T17:17:14.318Z,49.74
2019-02-19T17:20:17.565Z,48.44
2019-02-19T17:22:48.830Z,49.16
2019-02-19T17:25:35.082Z,48.55
2019-02-19T17:28:18.051Z,48.67
2019-02-19T17:31:04.699Z,49.54
2019-02-19T17:33:51.149Z,49.46
2019-02-19T17:36:32.055Z,49.64
2019-02-19T17:39:34.670Z,48.87
2019-02-19T17:42:11.020Z,49.58
2019-02-19T17:44:54.132Z,48.43
2019-02-19T17:47:40.006Z,50.20
2019-02-19T17:50:15.814Z,51.02
2019-02-19T17:53:06.773Z,49.67
2019-02-19T17:55:52.225Z,50.17
2019-02-19T17:58:38.527Z,49.16
2019-02-19T18:01:26.395Z,48.74
2019-02-19T18:04:04.332Z,47.83
2019-02-19T18:07:09.918Z,48.01
2019-02-19T18:09:58.448Z,48.78
2019-02-19T18:12:44.474Z,49.72
2019-02-19T18:15:31.039Z,51.86
2019-02-19T18:18:19.899Z,52.09
2019-02-19T18:20:48.920Z,53.00
2019-02-19T18:23:17.508Z,52.29
2019-02-19T18:25:46.304Z,51.71
2019-02-19T18:28:14.938Z,52.09
2019-02-19T18:30:43.567Z,52.40
2019-02-19T18:33:12.199Z,52.85
2019-02-19T18:35:41.339Z,52.02
2019-02-19T18:38:09.978Z,53.26
2019-02-19T18:40:38.580Z,54.15
2019-02-19T18:43:07.261Z,54.57
2019-02-19T18:45:36.116Z,53.28
2019-02-19T18:48:04.727Z,52.92
2019-02-19T18:50:33.316Z,55.06
2019-02-19T18:53:02.149Z,54.87
2019-02-19T18:55:30.742Z,54.81
2019-02-19T18:57:59.328Z,54.33
2019-02-19T19:00:28.070Z,54.94
2019-02-19T19:02:56.905Z,55.48
2019-02-19T19:05:25.584Z,54.96
2019-02-19T19:07:54.306Z,54.39
2019-02-19T19:10:23.158Z,54.59
2019-02-19T19:12:51.984Z,53.60
2019-02-19T19:15:20.970Z,51.83
2019-02-19T19:17:49.790Z,52.95
2019-02-19T19:20:18.530Z,53.32
2019-02-19T19:22:47.329Z,52.98
2019-02-19T19:25:16.541Z,53.52
2019-02-19T19:27:45.144Z,53.59
2019-02-19T19:30:13.746Z,53.16
2019-02-19T19:32:42.524Z,54.11
2019-02-19T19:35:11.221Z,54.48
2019-02-19T19:37:40.073Z,52.15
2019-02-19T19:40:08.717Z,51.88
2019-02-19T19:42:37.497Z,52.11
2019-02-19T19:45:06.412Z,55.03
2019-02-19T19:47:35.005Z,53.66
2019-02-19T19:50:03.712Z,54.18
2019-02-19T19:52:33.314Z,52.74
2019-02-19T19:55:01.885Z,53.22
2019-02-19T19:57:30.503Z,54.18
2019-02-19T19:59:59.133Z,52.85
2019-02-19T20:02:27.726Z,53.74
2019-02-19T20:04:56.329Z,52.09
2019-02-19T20:07:24.919Z,53.34
2019-02-19T20:09:53.840Z,53.85
2019-02-19T20:12:22.788Z,52.94
2019-02-19T20:14:51.497Z,55.45
2019-02-19T20:17:20.397Z,55.95
2019-02-19T20:19:50.000Z,53.29
2019-02-19T20:22:18.673Z,54.94
2019-02-19T20:24:47.326Z,55.55
2019-02-19T20:27:15.932Z,55.73
2019-02-19T20:29:44.558Z,55.42
2019-02-19T20:32:13.741Z,55.09
2019-02-19T20:34:42.354Z,55.10
2019-02-19T20:37:11.138Z,53.76
2019-02-19T20:39:39.764Z,51.87
2019-02-19T20:42:08.459Z,51.81
2019-02-19T20:44:37.089Z,53.94
2019-02-19T20:47:05.958Z,55.27
2019-02-19T20:49:34.782Z,57.06
2019-02-19T20:52:03.676Z,54.85
2019-02-19T20:54:32.635Z,55.33
2019-02-19T20:57:01.211Z,53.83
2019-02-19T20:59:30.398Z,53.40
2019-02-19T21:01:59.096Z,52.90
2019-02-19T21:04:28.502Z,54.17
2019-02-19T21:06:57.082Z,53.92
2019-02-19T21:09:25.836Z,53.96
2019-02-19T21:11:54.515Z,54.10
2019-02-19T21:14:23.126Z,54.57
2019-02-19T21:16:51.734Z,54.06
2019-02-19T21:19:20.332Z,55.46
2019-02-19T21:21:48.914Z,56.36
2019-02-19T21:24:17.563Z,55.97
2019-02-19T21:26:46.328Z,54.89
2019-02-19T21:29:15.276Z,56.34
2019-02-19T21:31:45.056Z,54.88
2019-02-19T21:34:13.674Z,54.69
2019-02-19T21:36:42.382Z,55.00
2019-02-19T21:39:11.206Z,54.56
2019-02-19T21:41:39.827Z,53.80
2019-02-19T21:44:08.642Z,55.87
2019-02-19T21:46:37.255Z,54.40
2019-02-19T21:49:05.808Z,54.80
2019-02-19T21:51:36.185Z,55.18
2019-02-19T21:54:05.003Z,55.32
2019-02-19T21:56:33.513Z,55.10
2019-02-19T21:59:02.285Z,55.27
2019-02-19T22:01:31.175Z,53.86
2019-02-19T22:03:59.840Z,53.69
2019-02-19T22:06:28.413Z,57.14
2019-02-19T22:08:57.056Z,55.39
2019-02-19T22:11:25.628Z,56.29
2019-02-19T22:13:54.255Z,57.60
2019-02-19T22:16:22.958Z,55.94
2019-02-19T22:18:52.208Z,54.06
2019-02-19T22:21:46.077Z,53.08
2019-02-19T22:24:16.290Z,53.16
2019-02-19T22:26:44.886Z,57.67
2019-02-19T22:29:13.485Z,56.35
2019-02-19T22:31:42.127Z,55.89
2019-02-19T22:34:11.026Z,53.51
2019-02-19T22:36:39.628Z,53.00
2019-02-19T22:39:08.394Z,52.62
2019-02-19T22:41:37.263Z,54.40
2019-02-19T22:44:05.869Z,54.98
2019-02-19T22:46:34.494Z,54.94
2019-02-19T22:49:03.328Z,55.93
2019-02-19T22:51:32.429Z,55.61
2019-02-19T22:54:20.062Z,57.74
2019-02-19T22:56:48.990Z,58.89
2019-02-19T22:59:17.844Z,55.59
2019-02-19T23:01:51.795Z,54.72
2019-02-19T23:04:20.368Z,54.40
2019-02-19T23:06:49.203Z,53.95
2019-02-19T23:09:17.803Z,54.75
2019-02-19T23:11:46.410Z,54.15
2019-02-19T23:14:15.039Z,56.39
2019-02-19T23:16:43.647Z,56.27
2019-02-19T23:19:12.303Z,57.34
2019-02-19T23:21:41.527Z,57.69
2019-02-19T23:24:10.481Z,56.97
2019-02-19T23:26:39.063Z,59.12
2019-02-19T23:29:07.664Z,56.82
2019-02-19T23:31:36.484Z,57.56
2019-02-19T23:34:05.158Z,56.71
2019-02-19T23:36:43.872Z,55.84
2019-02-19T23:39:12.716Z,59.86
2019-02-19T23:41:41.307Z,57.79
2019-02-19T23:44:09.872Z,56.41
2019-02-19T23:46:38.492Z,56.52
2019-02-19T23:51:41.592Z,60.76
2019-02-19T23:54:10.664Z,60.43
2019-02-19T23:56:39.409Z,59.89
2019-02-19T23:59:08.322Z,57.84
